Anna Maria, FL

5:18 AM EDT on September 02, 2014 (GMT -0400)
Pine Lakes | Change Station
CLOSE
Current Station
Personal Weather Station
Location: Bradenton, FL
Elevation: 25 ft
Nearby Weather Stations

Elev 25 ft 27.48 °N, 82.60 °W | Updated 8 seconds ago

Clear
Clear
76.2 °F
Feels Like 76 °F
N
0.3
Wind Variable Wind from ESE
Gusts 2.3 mph

Today
High -- | Low -- °F
--% Chance of Precip.
Yesterday
High -- | Low -- °F
Precip. -- in
7:10 AM 7:50 PM
Waxing Crescent, 49% visible
Pressure 30.01 in
Visibility 10.0 miles
Clouds Clear
Heat Index 76 °F
Dew Point 74 °F
Humidity 92%
Rainfall 0.00 in
Snow Depth Not available.
UV 0 out of 12
Pollen 5.20 out of 12
Air Quality Not available.
Flu Activity Not available.
METAR KSRQ 020853Z AUTO 09005KT 10SM CLR 27/23 A3001 RMK AO2 SLP162 T02670228 58018 $

More Conditions Fewer Conditions

Pressure 30.01 in
Visibility 10.0 miles
Clouds Clear
Heat Index 76 °F
Dew Point 74 °F
Humidity 92%
Rainfall 0.00 in
Snow Depth Not available.
UV 0 out of 12
Pollen 5.20 out of 12
Air Quality Not available.
Flu Activity Not available.
METAR KSRQ 020853Z AUTO 09005KT 10SM CLR 27/23 A3001 RMK AO2 SLP162 T02670228 58018 $

More Conditions Fewer Conditions

10-Day Weather Forecast

Almanac

Astronomy

Sep. 02, 2014 Rise Set
Actual Time 7:10 AM EDT 7:50 PM EDT
Civil Twilight 6:46 AM EDT 8:14 PM EDT
Nautical Twilight 6:18 AM EDT 8:41 PM EDT
Astronomical Twilight 5:50 AM EDT 9:10 PM EDT
Moon 2:16 PM EDT 12:27 AM EDT
Length of Visible Light 13h 27m
Length of Day
12h 40m
Tomorrow will be 1m 35s shorter.
Waxing Crescent, 49% of the Moon is Illuminated
Today
Waxing Crescent
Sep 2
First Quarter
Sep 8
Full
Sep 15
Last Quarter
Sep 24
New

Today's Extremes

State Highs State Lows

Community

WunderPhotos

Upload Photos

1,749,587 photos uploaded!

WunderBlogs® & News

Nearby

Snow Depth

Station Depth Elevation
No new snow has been reported.

Earthquake Activity

City Distance Mag. Time & Date
No recent earthquake activity has been reported nearby.
Minimum magnitude displayed is 2.5.

Coastal Water Temperatures

Place Temperature
St Petersburg, FL 91.0 °F
Old Port Tampa, FL 88.0 °F
McKay Bay Entrance, FL 89.1 °F

Nearby Weather Stations